createdAt,value
2018-06-05T00:01:16.090Z,86.20
2018-06-05T00:03:44.621Z,85.40
2018-06-05T00:06:13.077Z,86.80
2018-06-05T00:08:41.617Z,86.30
2018-06-05T00:11:10.054Z,87.10
2018-06-05T00:13:38.506Z,87.80
2018-06-05T00:16:07.772Z,88.00
2018-06-05T00:18:36.215Z,88.60
2018-06-05T00:21:04.694Z,89.70
2018-06-05T00:23:33.173Z,90.00
2018-06-05T00:26:01.631Z,90.30
2018-06-05T00:28:30.751Z,90.20
2018-06-05T00:30:59.250Z,90.30
2018-06-05T00:33:27.711Z,90.20
2018-06-05T00:35:56.158Z,90.00
2018-06-05T00:38:25.324Z,88.80
2018-06-05T00:40:54.346Z,89.00
2018-06-05T00:43:22.802Z,88.80
2018-06-05T00:45:51.949Z,90.00
2018-06-05T00:48:20.446Z,89.30
2018-06-05T00:50:48.911Z,89.40
2018-06-05T00:53:17.458Z,90.20
2018-06-05T00:55:45.970Z,89.50
2018-06-05T01:07:23.804Z,90.20
2018-06-05T01:09:52.305Z,90.20
2018-06-05T01:12:20.763Z,90.20
2018-06-05T01:14:49.283Z,90.00
2018-06-05T01:17:17.742Z,89.70
2018-06-05T01:19:46.179Z,90.10
2018-06-05T01:31:35.266Z,90.00
2018-06-05T01:34:03.738Z,89.20
2018-06-05T01:36:32.174Z,90.80
2018-06-05T01:39:00.658Z,91.30
2018-06-05T01:41:29.110Z,90.40
2018-06-05T01:43:57.566Z,90.90
2018-06-05T01:46:26.038Z,91.30
2018-06-05T01:48:54.773Z,91.30
2018-06-05T01:51:23.225Z,91.10
2018-06-05T01:53:52.055Z,91.40
2018-06-05T01:56:20.541Z,91.50
2018-06-05T01:58:48.993Z,92.20
2018-06-05T02:01:17.538Z,92.10
2018-06-05T02:03:45.982Z,92.20
2018-06-05T02:06:15.603Z,92.00
2018-06-05T02:08:44.050Z,92.00
2018-06-05T02:11:12.502Z,92.60
2018-06-05T02:13:40.937Z,92.70
2018-06-05T02:16:09.774Z,93.10
2018-06-05T02:18:38.199Z,93.50
2018-06-05T02:21:06.657Z,93.10
2018-06-05T02:23:35.140Z,93.40
2018-06-05T02:26:03.602Z,93.50
2018-06-05T02:28:32.074Z,94.00
2018-06-05T02:31:00.553Z,93.70
2018-06-05T02:33:29.736Z,93.50
2018-06-05T02:35:58.199Z,93.60
2018-06-05T02:38:27.357Z,93.50
2018-06-05T02:40:55.808Z,94.00
2018-06-05T02:43:24.274Z,93.80
2018-06-05T02:45:52.774Z,93.80
2018-06-05T02:48:21.276Z,94.00
2018-06-05T02:50:49.730Z,94.10
2018-06-05T02:53:18.389Z,93.90
2018-06-05T02:55:46.873Z,93.70
2018-06-05T03:07:20.685Z,94.40
2018-06-05T03:09:49.126Z,94.40
2018-06-05T03:12:17.600Z,95.00
2018-06-05T03:14:46.073Z,95.00
2018-06-05T03:31:34.341Z,95.20
2018-06-05T03:34:03.317Z,95.20
2018-06-05T03:36:31.846Z,96.40
2018-06-05T03:39:00.378Z,96.60
2018-06-05T03:41:30.079Z,96.60
2018-06-05T03:43:58.602Z,96.30
2018-06-05T03:46:27.074Z,96.00
2018-06-05T03:48:55.517Z,96.10
2018-06-05T03:51:23.985Z,96.10
2018-06-05T03:53:52.707Z,95.80
2018-06-05T03:56:21.167Z,96.00
2018-06-05T03:58:49.602Z,96.00
2018-06-05T04:01:18.091Z,96.40
2018-06-05T04:03:46.566Z,96.10
2018-06-05T04:06:16.586Z,96.20
2018-06-05T04:08:45.060Z,95.90
2018-06-05T04:30:36.511Z,96.00
2018-06-05T04:35:41.767Z,98.70
2018-06-05T04:38:10.287Z,98.80
2018-06-05T04:40:38.824Z,99.10
2018-06-05T04:43:07.319Z,98.70
2018-06-05T04:45:35.799Z,98.70
2018-06-05T04:48:04.295Z,98.80
2018-06-05T04:50:32.912Z,98.50
2018-06-05T04:53:01.659Z,98.40
2018-06-05T04:55:30.183Z,98.50
2018-06-05T05:00:28.125Z,98.30
2018-06-05T05:05:24.919Z,98.30
2018-06-05T05:07:53.418Z,98.60
2018-06-05T05:10:22.018Z,99.10
2018-06-05T05:12:50.551Z,99.40
2018-06-05T05:15:19.038Z,99.40
2018-06-05T05:17:47.522Z,99.30
2018-06-05T05:29:35.985Z,99.50
2018-06-05T05:32:04.491Z,99.60
2018-06-05T05:34:33.050Z,98.20
2018-06-05T05:37:01.880Z,97.50
2018-06-05T05:39:30.382Z,96.50
2018-06-05T05:41:58.870Z,95.50
2018-06-05T05:46:55.618Z,92.00
2018-06-05T05:49:24.070Z,90.40
2018-06-05T05:51:52.921Z,84.40
2018-06-05T05:54:21.438Z,81.20
2018-06-05T05:56:49.904Z,78.70
2018-06-05T05:59:18.513Z,76.00
2018-06-05T06:01:47.051Z,72.60
2018-06-05T06:04:17.378Z,69.80
2018-06-05T06:06:45.935Z,67.10
2018-06-05T06:19:57.043Z,65.90
2018-06-05T06:22:25.583Z,64.80
2018-06-05T06:24:54.067Z,56.20
2018-06-05T06:27:22.587Z,54.80
2018-06-05T06:29:51.130Z,54.40
2018-06-05T06:32:19.624Z,52.70
2018-06-05T06:34:48.142Z,51.20
2018-06-05T06:37:18.073Z,50.20
2018-06-05T06:39:46.526Z,47.30
2018-06-05T07:00:23.778Z,47.40
2018-06-05T07:02:52.282Z,45.80
2018-06-05T07:05:20.871Z,36.20
2018-06-05T07:07:49.456Z,36.20
2018-06-05T07:10:18.000Z,34.50
2018-06-05T07:12:46.479Z,34.50
2018-06-05T07:31:33.866Z,33.20
2018-06-05T07:34:02.347Z,31.30
2018-06-05T07:36:30.822Z,29.60
2018-06-05T07:39:02.689Z,29.00
2018-06-05T07:41:32.241Z,28.50
2018-06-05T07:44:00.712Z,28.10
2018-06-05T07:46:29.196Z,28.10
2018-06-05T07:48:57.647Z,28.40
2018-06-05T07:53:54.358Z,28.00
2018-06-05T07:56:22.947Z,27.20
2018-06-05T07:58:51.460Z,26.80
2018-06-05T08:01:19.974Z,27.30
2018-06-05T08:03:48.519Z,27.60
2018-06-05T08:06:17.576Z,27.30
2018-06-05T08:08:46.095Z,25.80
2018-06-05T08:17:21.706Z,26.50
2018-06-05T08:19:56.606Z,26.90
2018-06-05T08:22:29.262Z,26.10
2018-06-05T08:24:57.755Z,26.60
2018-06-05T08:27:26.291Z,26.70
2018-06-05T08:29:54.802Z,25.70
2018-06-05T08:32:23.296Z,25.40
2018-06-05T08:34:51.746Z,24.90
2018-06-05T08:37:21.055Z,24.70
2018-06-05T08:39:50.054Z,24.90
2018-06-05T08:42:18.590Z,24.30
2018-06-05T08:44:47.327Z,24.10
2018-06-05T09:06:38.849Z,24.20
2018-06-05T09:11:46.526Z,23.00
2018-06-05T09:25:05.629Z,22.40
2018-06-05T09:27:34.092Z,22.20
2018-06-05T09:30:02.534Z,21.70
2018-06-05T09:32:31.023Z,21.60
2018-06-05T09:34:59.468Z,21.60
2018-06-05T09:37:27.937Z,20.90
2018-06-05T09:39:57.278Z,21.00
2018-06-05T09:42:25.741Z,21.20
2018-06-05T09:44:54.183Z,21.50
2018-06-05T09:47:23.351Z,21.60
2018-06-05T09:49:51.779Z,21.60
2018-06-05T09:52:21.027Z,21.80
2018-06-05T09:54:49.546Z,22.60
2018-06-05T09:57:18.033Z,22.50
2018-06-05T09:59:46.542Z,22.70
2018-06-05T10:20:33.006Z,22.40
2018-06-05T10:23:03.313Z,22.60
2018-06-05T10:25:31.858Z,30.00
2018-06-05T10:28:00.402Z,31.60
2018-06-05T10:30:28.866Z,32.70
2018-06-05T10:32:57.336Z,34.80
2018-06-05T10:35:25.858Z,35.20
2018-06-05T10:37:54.322Z,34.80
2018-06-05T10:40:23.478Z,35.10
2018-06-05T10:42:52.450Z,35.70
2018-06-05T10:45:20.918Z,37.30
2018-06-05T10:47:49.398Z,35.40
2018-06-05T10:50:17.898Z,35.20
2018-06-05T10:52:46.486Z,36.30
2018-06-05T11:05:57.679Z,36.40
2018-06-05T11:08:26.126Z,36.30
2018-06-05T11:10:54.652Z,35.20
2018-06-05T11:13:23.147Z,33.20
2018-06-05T11:15:51.603Z,34.00
2018-06-05T11:18:20.444Z,34.30
2018-06-05T11:20:48.933Z,33.20
2018-06-05T11:23:17.502Z,34.10
2018-06-05T11:25:45.960Z,34.10
2018-06-05T11:31:35.024Z,34.30
2018-06-05T11:34:03.638Z,34.80
2018-06-05T11:36:32.147Z,34.20
2018-06-05T11:39:00.698Z,34.60
2018-06-05T11:41:30.515Z,35.60
2018-06-05T11:43:59.330Z,35.30
2018-06-05T11:46:27.975Z,35.60
2018-06-05T11:48:56.427Z,34.40
2018-06-05T11:51:25.090Z,35.40
2018-06-05T11:53:54.095Z,34.50
2018-06-05T11:56:22.826Z,35.00
2018-06-05T11:58:51.735Z,33.70
2018-06-05T12:01:20.440Z,34.90
2018-06-05T12:03:49.170Z,36.60
2018-06-05T12:06:17.881Z,34.90
2018-06-05T12:17:30.762Z,35.60
2018-06-05T12:19:59.415Z,35.00
2018-06-05T12:22:28.261Z,35.50
2018-06-05T12:24:57.057Z,35.20
2018-06-05T12:27:25.766Z,34.40
2018-06-05T12:29:54.389Z,35.10
2018-06-05T12:32:22.937Z,33.70
2018-06-05T12:34:51.424Z,32.90
2018-06-05T12:37:19.928Z,32.30
2018-06-05T12:39:49.552Z,33.30
2018-06-05T12:44:46.343Z,34.30
2018-06-05T12:57:45.918Z,34.30
2018-06-05T13:07:56.030Z,36.80
2018-06-05T13:10:24.639Z,37.20
2018-06-05T13:12:53.078Z,33.50
2018-06-05T13:15:21.923Z,33.00
2018-06-05T13:17:50.967Z,33.90
2018-06-05T13:20:19.859Z,33.10
2018-06-05T13:22:48.456Z,32.80
2018-06-05T13:25:17.508Z,32.70
2018-06-05T13:27:45.974Z,33.90
2018-06-05T13:42:13.467Z,31.80
2018-06-05T13:44:43.371Z,32.80
2018-06-05T13:47:11.866Z,31.70
2018-06-05T13:49:40.366Z,34.40
2018-06-05T13:52:08.858Z,34.90
2018-06-05T13:54:37.327Z,34.90
2018-06-05T13:57:05.867Z,35.80
2018-06-05T13:59:37.382Z,36.30
2018-06-05T14:02:05.959Z,36.60
2018-06-05T14:04:34.481Z,35.50
2018-06-05T14:07:02.953Z,34.70
2018-06-05T14:09:31.419Z,34.50
2018-06-05T14:12:02.238Z,35.80
2018-06-05T14:14:30.744Z,35.20
2018-06-05T14:16:59.294Z,32.90
2018-06-05T14:19:27.820Z,34.00
2018-06-05T14:21:56.299Z,34.70
2018-06-05T14:24:24.838Z,33.30
2018-06-05T14:26:54.129Z,33.10
2018-06-05T14:29:23.175Z,32.30
2018-06-05T14:31:51.618Z,33.30
2018-06-05T14:34:20.259Z,32.90
2018-06-05T14:36:48.773Z,32.90
2018-06-05T14:39:17.399Z,33.80
2018-06-05T14:41:45.901Z,33.40
2018-06-05T15:02:24.641Z,33.90
2018-06-05T15:04:53.180Z,34.60
2018-06-05T15:07:21.669Z,34.60
2018-06-05T15:09:50.237Z,35.00
2018-06-05T15:12:18.740Z,34.60
2018-06-05T15:14:47.189Z,35.30
2018-06-05T15:17:17.483Z,34.30
2018-06-05T15:19:45.945Z,34.10
2018-06-05T15:28:12.131Z,34.10
2018-06-05T15:30:40.619Z,33.40
2018-06-05T15:33:09.076Z,33.60
2018-06-05T15:35:37.574Z,33.90
2018-06-05T15:38:06.087Z,33.10
2018-06-05T15:40:35.049Z,32.40
2018-06-05T15:43:03.682Z,32.40
2018-06-05T15:45:32.587Z,33.50
2018-06-05T15:48:01.052Z,33.70
2018-06-05T15:50:29.896Z,33.30
2018-06-05T15:52:59.152Z,33.50
2018-06-05T15:55:27.635Z,33.30
2018-06-05T15:57:56.174Z,33.50
2018-06-05T16:00:24.669Z,32.70
2018-06-05T16:02:53.168Z,33.20
2018-06-05T16:05:21.788Z,32.70
2018-06-05T16:07:50.272Z,33.60
2018-06-05T16:10:18.766Z,33.50
2018-06-05T16:12:47.355Z,32.40
2018-06-05T16:15:17.394Z,32.90
2018-06-05T16:17:46.082Z,33.00
2018-06-05T16:31:34.487Z,33.30
2018-06-05T16:34:02.993Z,34.30
2018-06-05T16:36:31.523Z,33.00
2018-06-05T16:39:00.165Z,34.00
2018-06-05T16:43:56.766Z,35.50
2018-06-05T16:46:25.368Z,35.00
2018-06-05T16:48:54.135Z,34.70
2018-06-05T16:51:22.647Z,34.60
2018-06-05T16:53:51.978Z,35.20
2018-06-05T16:56:20.448Z,35.60
2018-06-05T16:58:48.928Z,35.30
2018-06-05T17:01:17.399Z,35.90
2018-06-05T17:03:45.880Z,36.30
2018-06-05T17:16:54.820Z,37.10
2018-06-05T17:19:23.322Z,38.00
2018-06-05T17:21:51.795Z,37.70
2018-06-05T17:24:20.334Z,38.10
2018-06-05T17:26:48.855Z,38.30
2018-06-05T17:29:17.330Z,39.20
2018-06-05T17:31:45.823Z,39.90
2018-06-05T17:51:49.659Z,40.60
2018-06-05T17:54:19.550Z,41.70
2018-06-05T17:56:50.354Z,42.50
2018-06-05T17:59:18.867Z,41.80
2018-06-05T18:01:47.429Z,42.40
2018-06-05T18:04:17.533Z,42.10
2018-06-05T18:06:46.012Z,42.40
2018-06-05T18:27:33.082Z,42.70
2018-06-05T18:30:01.653Z,42.40
2018-06-05T18:32:30.393Z,47.00
2018-06-05T18:34:59.720Z,47.40
2018-06-05T18:37:28.279Z,47.40
2018-06-05T18:39:56.788Z,47.00
2018-06-05T18:42:25.337Z,47.40
2018-06-05T18:44:54.051Z,47.20
2018-06-05T18:47:22.548Z,47.00
2018-06-05T18:49:51.703Z,47.00
2018-06-05T18:54:49.195Z,47.40
2018-06-05T18:57:18.194Z,47.60
2018-06-05T19:12:48.500Z,48.10
2018-06-05T19:15:17.698Z,48.30
2018-06-05T19:17:46.305Z,48.00
2018-06-05T19:31:35.158Z,47.60
2018-06-05T19:34:03.797Z,47.90
2018-06-05T19:36:32.266Z,49.70
2018-06-05T19:39:00.947Z,50.00
2018-06-05T19:41:29.427Z,50.30
2018-06-05T19:43:58.037Z,49.70
2018-06-05T19:48:54.833Z,49.10
2018-06-05T19:51:23.380Z,49.50
2018-06-05T19:53:51.928Z,50.30
2018-06-05T19:56:21.730Z,51.10
2018-06-05T19:58:50.209Z,51.10
2018-06-05T20:01:18.916Z,51.40
2018-06-05T20:12:32.663Z,50.80
2018-06-05T20:15:01.199Z,50.80
2018-06-05T20:17:29.683Z,51.40
2018-06-05T20:22:26.474Z,51.00
2018-06-05T20:24:55.183Z,50.40
2018-06-05T20:27:23.822Z,50.30
2018-06-05T20:29:52.546Z,50.20
2018-06-05T20:32:21.166Z,50.80
2018-06-05T20:34:49.707Z,50.20
2018-06-05T20:37:18.339Z,49.90
2018-06-05T20:39:46.864Z,49.90
2018-06-05T20:52:43.292Z,50.80
2018-06-05T20:55:11.982Z,50.00
2018-06-05T20:57:41.107Z,51.50
2018-06-05T21:00:09.643Z,52.00
2018-06-05T21:02:39.615Z,52.30
2018-06-05T21:05:08.265Z,53.00
2018-06-05T21:07:36.767Z,54.30
2018-06-05T21:10:05.344Z,55.50
2018-06-05T21:12:33.866Z,56.30
2018-06-05T21:15:02.878Z,56.30
2018-06-05T21:17:31.337Z,57.00
2018-06-05T21:19:59.827Z,57.50
2018-06-05T21:22:28.330Z,57.60
2018-06-05T21:24:56.786Z,58.30
2018-06-05T21:27:25.264Z,58.60
2018-06-05T21:29:53.755Z,59.20
2018-06-05T21:32:22.250Z,60.00
2018-06-05T21:34:50.727Z,60.40
2018-06-05T21:37:19.713Z,59.70
2018-06-05T21:39:48.246Z,60.50
2018-06-05T21:42:17.374Z,61.50
2018-06-05T21:44:45.856Z,61.00
2018-06-05T21:53:24.722Z,62.00
2018-06-05T21:55:53.194Z,63.00
2018-06-05T21:58:23.192Z,64.60
2018-06-05T22:00:51.697Z,65.20
2018-06-05T22:03:20.151Z,65.50
2018-06-05T22:05:48.621Z,66.30
2018-06-05T22:08:17.425Z,65.70
2018-06-05T22:10:45.916Z,66.20
2018-06-05T22:31:36.273Z,66.60
2018-06-05T22:34:04.732Z,66.60
2018-06-05T22:36:33.240Z,75.40
2018-06-05T22:39:01.760Z,75.80
2018-06-05T22:41:30.251Z,75.90
2018-06-05T22:46:26.899Z,76.00
2018-06-05T22:48:55.437Z,76.00
2018-06-05T22:51:23.951Z,76.20
2018-06-05T22:53:52.673Z,76.60
2018-06-05T22:56:21.118Z,76.40
2018-06-05T22:58:50.427Z,76.60
2018-06-05T23:01:18.921Z,77.00
2018-06-05T23:06:16.634Z,77.90
2018-06-05T23:08:45.107Z,79.00
2018-06-05T23:11:22.463Z,78.90
2018-06-05T23:13:51.370Z,79.50
2018-06-05T23:16:19.831Z,79.80
2018-06-05T23:18:48.281Z,80.40
2018-06-05T23:21:18.689Z,80.20
2018-06-05T23:23:47.147Z,80.60
2018-06-05T23:26:16.448Z,80.90
2018-06-05T23:28:44.938Z,81.70
2018-06-05T23:31:13.406Z,81.40
2018-06-05T23:33:41.863Z,81.70
2018-06-05T23:36:10.862Z,82.30
2018-06-05T23:41:07.507Z,82.50
2018-06-05T23:43:35.990Z,83.00
2018-06-05T23:46:04.602Z,83.20
2018-06-05T23:48:33.038Z,82.70
2018-06-05T23:51:01.526Z,83.90
2018-06-05T23:53:29.982Z,83.80
2018-06-05T23:55:58.426Z,83.80
2018-06-05T23:58:26.980Z,83.70
